Decoded Metar for KPUC (PRICE in UT, USA) (IATA:PUC) | Meteo·Mobile Aviation Weather
aviador You're here:

KPUC Decoded Metar

PRICE in UT, USA
Report Time2018-10-19 18:53:00
UTC Time2018-10-19 19:27:28
Flight Rules vfr VFR
Wind140° at 03 kt
W.Decomp.*RWY 14: 2.9 kt HW 0.7 kt LCW
RWY 18: 1.8 kt HW 2.4 kt LCW
RWY 07: 1.7 kt HW 2.5 kt RCW
W.Rank140° ranks 15
Current wind is below 140° avg. (6.1)
Visibility9999 m
Phenomena:N/A
Clouds:N/A
Expected CloudBase > 2,400 ft AGL from Temp-Dew spread
CeilingNone
Temp10°C (ISA +9)
Dew Point04°C (67% RH)
AAT7.6°C
QNH1031 hPa
Density Alt7,395 ft
Elevation6,860 ft
Report Wrong Elevation
Raw Report
KPUC 191853Z AUTO 14003KT 10SM CLR 10/04 A3044 RMK AO2 SLP314
T01000039=

Extra information for KPUC:More info

Metar Taf Metar & Taf Last 4 Metars F.Rules Stats Wind Profile Meteogram Temp Stats Airport Information Weather charts Add Link Nearby VenuesMetar ALERT Operation Metar Decoded Social comments

AIRNAV info for KPUC